createdAt,value
2022-09-04T00:02:30.881Z,2.42
2022-09-04T00:05:22.797Z,2.63
2022-09-04T00:08:25.444Z,2.50
2022-09-04T00:11:07.333Z,2.83
2022-09-04T00:13:57.463Z,2.53
2022-09-04T00:17:14.702Z,2.63
2022-09-04T00:19:59.788Z,2.47
2022-09-04T00:23:15.025Z,2.75
2022-09-04T00:26:20.856Z,2.80
2022-09-04T00:29:05.579Z,3.03
2022-09-04T00:31:50.652Z,2.70
2022-09-04T00:35:12.058Z,2.80
2022-09-04T00:41:02.542Z,2.33
2022-09-04T00:44:35.786Z,3.60
2022-09-04T00:47:48.917Z,2.60
2022-09-04T00:50:54.996Z,2.60
2022-09-04T00:53:52.032Z,2.60
2022-09-04T00:57:02.214Z,2.70
2022-09-04T01:00:21.339Z,2.72
2022-09-04T01:03:42.584Z,2.47
2022-09-04T01:06:54.152Z,2.40
2022-09-04T01:09:47.899Z,2.65
2022-09-04T01:12:58.505Z,2.83
2022-09-04T01:15:45.180Z,4.05
2022-09-04T01:18:51.966Z,2.95
2022-09-04T01:21:40.157Z,2.78
2022-09-04T01:24:42.070Z,2.30
2022-09-04T01:27:56.672Z,2.78
2022-09-04T01:30:24.148Z,2.35
2022-09-04T01:33:24.016Z,3.15
2022-09-04T01:36:49.533Z,2.38
2022-09-04T01:39:26.197Z,2.45
2022-09-04T01:42:23.633Z,2.10
2022-09-04T01:44:50.710Z,2.20
2022-09-04T01:47:30.939Z,2.33
2022-09-04T01:50:22.175Z,2.90
2022-09-04T01:53:14.544Z,2.50
2022-09-04T01:56:29.735Z,2.50
2022-09-04T01:59:26.427Z,2.20
2022-09-04T02:02:41.356Z,2.40
2022-09-04T02:05:43.136Z,2.00
2022-09-04T02:08:55.306Z,2.20
2022-09-04T02:11:29.848Z,2.53
2022-09-04T02:14:24.402Z,2.33
2022-09-04T02:17:21.150Z,2.22
2022-09-04T02:20:17.072Z,2.55
2022-09-04T02:23:14.461Z,2.15
2022-09-04T02:26:19.419Z,1.80
2022-09-04T02:29:28.203Z,2.35
2022-09-04T02:32:19.427Z,2.63
2022-09-04T02:35:16.096Z,2.65
2022-09-04T02:38:26.333Z,1.88
2022-09-04T02:40:56.190Z,2.35
2022-09-04T02:43:43.714Z,2.35
2022-09-04T02:46:51.120Z,2.08
2022-09-04T02:49:51.988Z,2.30
2022-09-04T02:53:21.100Z,2.25
2022-09-04T02:56:46.608Z,2.30
2022-09-04T02:59:43.068Z,2.50
2022-09-04T03:02:38.742Z,2.30
2022-09-04T03:05:42.265Z,2.00
2022-09-04T03:08:24.307Z,2.20
2022-09-04T03:11:26.949Z,2.38
2022-09-04T03:14:39.052Z,2.10
2022-09-04T03:17:30.029Z,3.28
2022-09-04T03:20:33.743Z,1.90
2022-09-04T03:23:25.787Z,2.00
2022-09-04T03:26:01.648Z,1.75
2022-09-04T03:29:11.918Z,1.90
2022-09-04T03:32:15.864Z,2.13
2022-09-04T03:35:26.397Z,2.22
2022-09-04T03:38:34.108Z,2.10
2022-09-04T03:41:45.981Z,2.40
2022-09-04T03:44:54.837Z,2.47
2022-09-04T03:48:09.394Z,2.80
2022-09-04T03:51:01.417Z,1.90
2022-09-04T03:53:59.383Z,2.28
2022-09-04T03:57:19.933Z,1.83
2022-09-04T04:00:12.728Z,2.53
2022-09-04T04:03:19.628Z,2.17
2022-09-04T04:06:23.732Z,1.77
2022-09-04T04:09:47.451Z,1.92
2022-09-04T04:12:59.250Z,1.95
2022-09-04T04:15:37.955Z,1.80
2022-09-04T04:22:13.691Z,1.80
2022-09-04T04:25:42.559Z,1.90
2022-09-04T04:29:02.812Z,1.65
2022-09-04T04:32:10.678Z,1.70
2022-09-04T04:35:26.317Z,1.70
2022-09-04T04:38:24.874Z,2.15
2022-09-04T04:41:30.899Z,1.65
2022-09-04T04:44:45.711Z,1.73
2022-09-04T04:48:00.456Z,2.13
2022-09-04T04:51:05.374Z,2.08
2022-09-04T04:54:34.711Z,1.70
2022-09-04T04:57:27.660Z,2.35
2022-09-04T05:00:37.199Z,1.80
2022-09-04T05:03:54.014Z,2.08
2022-09-04T05:07:52.789Z,2.00
2022-09-04T05:10:41.173Z,2.10
2022-09-04T05:13:41.705Z,2.22
2022-09-04T05:16:58.404Z,1.67
2022-09-04T05:20:15.394Z,1.95
2022-09-04T05:23:29.177Z,1.60
2022-09-04T05:26:19.441Z,2.58
2022-09-04T05:29:47.526Z,1.30
2022-09-04T05:32:37.638Z,1.83
2022-09-04T05:35:41.021Z,1.60
2022-09-04T05:38:30.628Z,1.70
2022-09-04T05:41:19.562Z,1.73
2022-09-04T05:44:31.067Z,2.10
2022-09-04T05:47:47.841Z,1.85
2022-09-04T05:50:46.658Z,1.83
2022-09-04T05:54:02.643Z,1.83
2022-09-04T05:57:29.686Z,1.80
2022-09-04T06:00:13.398Z,1.90
2022-09-04T06:03:12.527Z,2.13
2022-09-04T06:06:10.221Z,2.00
2022-09-04T06:09:58.636Z,2.08
2022-09-04T06:12:49.569Z,3.22
2022-09-04T06:16:08.116Z,1.95
2022-09-04T06:19:15.035Z,1.60
2022-09-04T06:22:40.716Z,2.00
2022-09-04T06:25:59.880Z,1.75
2022-09-04T06:29:14.875Z,1.92
2022-09-04T06:32:22.445Z,2.20
2022-09-04T06:35:15.792Z,1.95
2022-09-04T06:38:09.518Z,2.00
2022-09-04T06:41:22.838Z,2.58
2022-09-04T06:44:16.312Z,2.08
2022-09-04T06:46:57.697Z,2.83
2022-09-04T06:50:08.549Z,2.10
2022-09-04T06:53:16.326Z,2.33
2022-09-04T06:56:35.989Z,2.63
2022-09-04T06:59:42.040Z,2.70
2022-09-04T07:02:31.245Z,2.60
2022-09-04T07:08:18.515Z,2.53
2022-09-04T07:10:59.592Z,3.30
2022-09-04T07:14:45.267Z,3.00
2022-09-04T07:17:37.739Z,2.72
2022-09-04T07:20:43.517Z,2.80
2022-09-04T07:23:46.154Z,3.20
2022-09-04T07:26:58.566Z,2.53
2022-09-04T07:29:41.679Z,3.22
2022-09-04T07:32:26.761Z,3.00
2022-09-04T07:35:30.148Z,2.90
2022-09-04T07:38:21.959Z,2.95
2022-09-04T07:41:02.549Z,3.55
2022-09-04T07:43:54.697Z,3.33
2022-09-04T07:46:57.541Z,3.15
2022-09-04T07:50:15.926Z,3.28
2022-09-04T07:53:19.912Z,3.28
2022-09-04T07:56:02.046Z,2.97
2022-09-04T07:58:56.766Z,3.30
2022-09-04T08:02:27.831Z,3.45
2022-09-04T08:05:37.049Z,3.75
2022-09-04T08:08:28.644Z,3.75
2022-09-04T08:11:35.199Z,3.88
2022-09-04T08:14:52.082Z,3.65
2022-09-04T08:17:46.083Z,3.60
2022-09-04T08:20:56.854Z,3.95
2022-09-04T08:23:54.634Z,3.95
2022-09-04T08:27:00.802Z,4.38
2022-09-04T08:30:10.344Z,3.88
2022-09-04T08:33:28.363Z,4.20
2022-09-04T08:36:31.593Z,3.65
2022-09-04T08:39:52.343Z,5.03
2022-09-04T08:42:59.583Z,4.28
2022-09-04T08:46:32.286Z,4.20
2022-09-04T08:49:11.683Z,4.35
2022-09-04T08:52:44.769Z,4.00
2022-09-04T08:55:32.658Z,4.32
2022-09-04T08:58:49.408Z,4.00
2022-09-04T09:02:10.490Z,3.85
2022-09-04T09:08:49.934Z,4.10
2022-09-04T09:12:40.695Z,3.92
2022-09-04T09:15:50.952Z,3.90
2022-09-04T09:19:10.254Z,4.13
2022-09-04T09:22:27.880Z,3.30
2022-09-04T09:26:02.979Z,3.15
2022-09-04T09:29:26.831Z,3.85
2022-09-04T09:32:37.510Z,3.30
2022-09-04T09:36:07.636Z,3.30
2022-09-04T09:39:25.692Z,3.65
2022-09-04T09:42:20.075Z,3.25
2022-09-04T09:45:27.399Z,3.50
2022-09-04T09:48:31.467Z,3.08
2022-09-04T09:52:11.526Z,3.53
2022-09-04T09:55:26.314Z,3.30
2022-09-04T09:58:36.038Z,2.88
2022-09-04T10:01:51.289Z,2.85
2022-09-04T10:05:13.746Z,2.80
2022-09-04T10:08:35.542Z,3.00
2022-09-04T10:11:29.233Z,3.10
2022-09-04T10:14:31.885Z,2.75
2022-09-04T10:17:19.589Z,2.85
2022-09-04T10:20:30.074Z,2.70
2022-09-04T10:23:06.919Z,3.10
2022-09-04T10:26:16.194Z,2.78
2022-09-04T10:29:28.799Z,2.22
2022-09-04T10:32:25.625Z,2.53
2022-09-04T10:35:25.400Z,3.22
2022-09-04T10:38:38.392Z,2.70
2022-09-04T10:41:49.933Z,2.55
2022-09-04T10:45:15.876Z,2.53
2022-09-04T10:48:28.639Z,2.53
2022-09-04T10:52:05.655Z,2.13
2022-09-04T10:54:46.381Z,2.80
2022-09-04T10:58:17.219Z,3.15
2022-09-04T11:01:42.732Z,2.40
2022-09-04T11:05:02.630Z,2.67
2022-09-04T11:08:28.684Z,2.58
2022-09-04T11:11:52.964Z,2.17
2022-09-04T11:15:25.244Z,2.58
2022-09-04T11:18:33.108Z,2.88
2022-09-04T11:22:20.465Z,2.60
2022-09-04T11:25:04.335Z,2.60
2022-09-04T11:33:05.076Z,2.65
2022-09-04T11:36:08.047Z,2.92
2022-09-04T11:39:05.053Z,2.55
2022-09-04T11:42:27.732Z,3.08
2022-09-04T11:46:06.699Z,2.88
2022-09-04T11:49:18.866Z,2.65
2022-09-04T11:52:31.303Z,2.70
2022-09-04T11:55:09.965Z,2.60
2022-09-04T11:58:09.981Z,2.67
2022-09-04T12:01:22.825Z,2.92
2022-09-04T12:04:23.266Z,2.85
2022-09-04T12:07:19.533Z,3.00
2022-09-04T12:10:19.748Z,2.85
2022-09-04T12:13:47.615Z,2.80
2022-09-04T12:16:52.785Z,3.05
2022-09-04T12:19:55.102Z,2.58
2022-09-04T12:23:19.199Z,2.75
2022-09-04T12:26:51.217Z,2.75
2022-09-04T12:29:40.042Z,2.67
2022-09-04T12:32:45.120Z,2.30
2022-09-04T12:35:39.447Z,2.90
2022-09-04T12:38:47.334Z,2.88
2022-09-04T12:41:49.225Z,3.03
2022-09-04T12:44:53.561Z,2.67
2022-09-04T12:47:41.208Z,3.60
2022-09-04T12:50:33.429Z,2.83
2022-09-04T12:54:00.053Z,2.75
2022-09-04T12:57:55.768Z,2.35
2022-09-04T13:00:40.794Z,3.08
2022-09-04T13:03:59.922Z,2.58
2022-09-04T13:07:15.956Z,2.92
2022-09-04T13:10:33.040Z,3.08
2022-09-04T13:14:23.518Z,3.00
2022-09-04T13:17:30.152Z,2.50
2022-09-04T13:20:26.486Z,2.45
2022-09-04T13:23:46.806Z,2.90
2022-09-04T13:26:47.194Z,2.88
2022-09-04T13:30:03.275Z,2.67
2022-09-04T13:32:55.481Z,2.60
2022-09-04T13:36:19.216Z,2.30
2022-09-04T13:39:27.950Z,2.60
2022-09-04T13:42:26.162Z,2.45
2022-09-04T13:45:23.477Z,2.72
2022-09-04T13:48:32.752Z,2.70
2022-09-04T13:51:37.590Z,2.72
2022-09-04T13:54:37.061Z,2.55
2022-09-04T13:57:28.072Z,2.90
2022-09-04T14:00:07.733Z,2.72
2022-09-04T14:02:39.251Z,2.53
2022-09-04T14:05:33.305Z,2.30
2022-09-04T14:08:08.929Z,2.83
2022-09-04T14:11:11.046Z,2.75
2022-09-04T14:14:41.270Z,2.65
2022-09-04T14:17:12.058Z,2.45
2022-09-04T14:20:48.431Z,2.67
2022-09-04T14:23:48.478Z,3.30
2022-09-04T14:26:24.601Z,2.53
2022-09-04T14:29:36.274Z,2.88
2022-09-04T14:33:07.475Z,2.75
2022-09-04T14:36:35.531Z,2.88
2022-09-04T14:39:15.984Z,2.63
2022-09-04T14:42:32.020Z,3.00
2022-09-04T14:45:25.777Z,2.40
2022-09-04T14:48:06.854Z,2.55
2022-09-04T14:50:55.813Z,2.80
2022-09-04T14:53:36.014Z,3.03
2022-09-04T14:56:12.014Z,2.65
2022-09-04T14:59:34.299Z,2.60
2022-09-04T15:02:08.697Z,2.50
2022-09-04T15:05:07.498Z,2.45
2022-09-04T15:07:43.132Z,2.70
2022-09-04T15:10:50.982Z,2.33
2022-09-04T15:13:31.479Z,2.50
2022-09-04T15:16:09.925Z,2.65
2022-09-04T15:19:56.489Z,2.80
2022-09-04T15:23:07.599Z,2.45
2022-09-04T15:26:03.014Z,2.78
2022-09-04T15:28:51.649Z,2.72
2022-09-04T15:31:42.146Z,3.08
2022-09-04T15:34:24.213Z,2.72
2022-09-04T15:36:51.712Z,2.80
2022-09-04T15:39:54.799Z,2.72
2022-09-04T15:42:56.758Z,2.78
2022-09-04T15:45:54.120Z,2.90
2022-09-04T15:49:17.402Z,2.78
2022-09-04T15:52:44.344Z,2.95
2022-09-04T15:55:30.720Z,2.65
2022-09-04T15:58:36.389Z,2.75
2022-09-04T16:01:06.520Z,2.85
2022-09-04T16:04:33.358Z,3.40
2022-09-04T16:07:36.927Z,2.80
2022-09-04T16:10:24.687Z,2.65
2022-09-04T16:13:32.922Z,2.70
2022-09-04T16:16:46.631Z,2.70
2022-09-04T16:19:59.991Z,2.65
2022-09-04T16:23:12.216Z,2.60
2022-09-04T16:25:50.415Z,2.92
2022-09-04T16:28:34.868Z,2.50
2022-09-04T16:31:23.050Z,2.60
2022-09-04T16:34:02.112Z,3.08
2022-09-04T16:36:40.245Z,2.72
2022-09-04T16:39:43.692Z,2.85
2022-09-04T16:42:46.321Z,3.05
2022-09-04T16:45:55.501Z,2.63
2022-09-04T16:48:48.652Z,2.90
2022-09-04T16:51:57.831Z,2.95
2022-09-04T16:54:49.251Z,3.10
2022-09-04T16:57:33.298Z,3.08
2022-09-04T17:00:14.321Z,3.10
2022-09-04T17:02:53.547Z,3.20
2022-09-04T17:05:51.397Z,3.10
2022-09-04T17:09:24.367Z,3.20
2022-09-04T17:12:20.627Z,2.90
2022-09-04T17:15:29.425Z,3.50
2022-09-04T17:17:59.457Z,3.63
2022-09-04T17:22:34.757Z,3.20
2022-09-04T17:28:58.917Z,3.22
2022-09-04T17:29:13.812Z,2.90
2022-09-04T17:38:09.063Z,2.85
2022-09-04T17:40:41.220Z,3.15
2022-09-04T17:40:52.440Z,3.20
2022-09-04T17:43:22.361Z,3.35
2022-09-04T17:46:15.999Z,3.25
2022-09-04T17:48:46.364Z,3.50
2022-09-04T17:51:33.803Z,3.42
2022-09-04T17:54:14.373Z,3.00
2022-09-04T17:56:59.858Z,3.33
2022-09-04T18:00:06.870Z,3.10
2022-09-04T18:02:59.537Z,2.90
2022-09-04T18:05:53.840Z,3.38
2022-09-04T18:08:55.625Z,2.92
2022-09-04T18:12:00.140Z,2.97
2022-09-04T18:15:32.262Z,3.20
2022-09-04T18:18:18.323Z,3.55
2022-09-04T18:21:12.261Z,4.25
2022-09-04T18:24:11.997Z,3.63
2022-09-04T18:26:51.203Z,3.42
2022-09-04T18:32:09.968Z,3.78
2022-09-04T18:37:06.670Z,3.80
2022-09-04T18:37:25.320Z,4.20
2022-09-04T18:39:41.011Z,4.57
2022-09-04T18:50:22.932Z,3.97
2022-09-04T18:50:39.876Z,4.97
2022-09-04T18:50:48.708Z,4.78
2022-09-04T18:51:30.666Z,5.20
2022-09-04T18:54:47.397Z,4.93
2022-09-04T18:57:49.263Z,5.22
2022-09-04T19:00:41.140Z,5.80
2022-09-04T19:03:27.873Z,5.88
2022-09-04T19:06:12.642Z,5.78
2022-09-04T19:08:51.736Z,6.25
2022-09-04T19:11:32.015Z,5.30
2022-09-04T19:14:19.044Z,5.63
2022-09-04T19:17:19.676Z,6.10
2022-09-04T19:20:07.914Z,5.32
2022-09-04T19:22:48.811Z,5.13
2022-09-04T19:25:34.015Z,5.60
2022-09-04T19:28:34.439Z,4.22
2022-09-04T19:31:31.303Z,4.10
2022-09-04T19:34:17.654Z,4.18
2022-09-04T19:38:13.676Z,4.45
2022-09-04T19:45:57.207Z,4.65
2022-09-04T19:45:59.535Z,4.65
2022-09-04T19:48:00.826Z,3.97
2022-09-04T19:53:31.576Z,4.30
2022-09-04T19:54:08.637Z,4.78
2022-09-04T19:57:32.626Z,4.15
2022-09-04T20:00:42.912Z,4.75
2022-09-04T20:03:56.711Z,4.60
2022-09-04T20:06:50.828Z,4.28
2022-09-04T20:09:49.635Z,4.28
2022-09-04T20:12:48.929Z,5.18
2022-09-04T20:15:31.743Z,5.22
2022-09-04T20:18:40.823Z,4.80
2022-09-04T20:21:18.100Z,4.50
2022-09-04T20:24:13.826Z,4.22
2022-09-04T20:27:24.388Z,5.28
2022-09-04T20:30:13.007Z,4.78
2022-09-04T20:32:56.550Z,4.68
2022-09-04T20:36:03.804Z,4.55
2022-09-04T20:39:12.695Z,4.10
2022-09-04T20:42:18.591Z,4.68
2022-09-04T20:46:11.092Z,4.70
2022-09-04T20:52:51.802Z,4.65
2022-09-04T20:52:52.785Z,4.65
2022-09-04T20:55:18.175Z,5.00
2022-09-04T21:02:34.683Z,4.32
2022-09-04T21:03:09.148Z,4.90
2022-09-04T21:04:55.290Z,4.53
2022-09-04T21:07:54.956Z,4.85
2022-09-04T21:10:37.895Z,5.05
2022-09-04T21:14:06.549Z,4.55
2022-09-04T21:17:29.067Z,4.85
2022-09-04T21:20:26.163Z,4.78
2022-09-04T21:23:31.698Z,4.82
2022-09-04T21:26:16.710Z,5.25
2022-09-04T21:29:10.788Z,5.93
2022-09-04T21:31:59.231Z,5.00
2022-09-04T21:35:15.767Z,4.82
2022-09-04T21:38:05.268Z,5.03
2022-09-04T21:41:19.193Z,5.10
2022-09-04T21:44:11.128Z,4.93
2022-09-04T21:47:45.066Z,5.55
2022-09-04T21:50:49.323Z,4.68
2022-09-04T21:55:26.654Z,6.03
2022-09-04T22:02:28.188Z,4.93
2022-09-04T22:02:37.308Z,4.93
2022-09-04T22:05:39.485Z,5.35
2022-09-04T22:13:06.277Z,5.03
2022-09-04T22:13:33.498Z,5.00
2022-09-04T22:15:06.879Z,5.18
2022-09-04T22:18:48.493Z,5.40
2022-09-04T22:22:12.069Z,5.18
2022-09-04T22:25:12.482Z,5.55
2022-09-04T22:28:29.009Z,5.40
2022-09-04T22:31:24.631Z,5.25
2022-09-04T22:34:42.653Z,5.22
2022-09-04T22:37:58.684Z,5.03
2022-09-04T22:41:17.706Z,5.70
2022-09-04T22:44:14.091Z,5.95
2022-09-04T22:47:27.160Z,5.82
2022-09-04T22:50:50.233Z,5.63
2022-09-04T22:54:05.327Z,5.70
2022-09-04T22:56:59.370Z,5.50
2022-09-04T23:00:11.404Z,6.22
2022-09-04T23:03:47.047Z,5.60
2022-09-04T23:11:25.272Z,5.93
2022-09-04T23:14:00.920Z,5.90
2022-09-04T23:14:08.812Z,5.45
2022-09-04T23:17:09.178Z,5.70
2022-09-04T23:26:31.047Z,5.38
2022-09-04T23:26:49.610Z,6.10
2022-09-04T23:27:01.486Z,6.00
2022-09-04T23:30:25.101Z,7.50
2022-09-04T23:33:37.317Z,6.53
2022-09-04T23:36:57.182Z,6.05
2022-09-04T23:40:10.383Z,5.18
2022-09-04T23:44:00.802Z,6.50
2022-09-04T23:46:55.948Z,5.93
2022-09-04T23:49:46.673Z,6.03
2022-09-04T23:52:48.906Z,6.22
2022-09-04T23:55:48.931Z,6.57
2022-09-04T23:59:38.241Z,5.75
